sensor_id;sensor_type;location;lat;lon;timestamp;pressure;altitude;pressure_sealevel;temperature;humidity
10176;BME280;18221;38.704;0.152;2023-01-31T00:03:04;99970.91;;;11.02;47.14
10176;BME280;18221;38.704;0.152;2023-01-31T00:05:33;99964.75;;;11.01;46.90
10176;BME280;18221;38.704;0.152;2023-01-31T00:08:01;99962.81;;;11.14;46.54
10176;BME280;18221;38.704;0.152;2023-01-31T00:10:29;99961.38;;;11.10;46.15
10176;BME280;18221;38.704;0.152;2023-01-31T00:12:58;99956.28;;;11.07;45.54
10176;BME280;18221;38.704;0.152;2023-01-31T00:15:26;99952.56;;;11.10;45.34
10176;BME280;18221;38.704;0.152;2023-01-31T00:17:55;99948.56;;;11.04;46.35
10176;BME280;18221;38.704;0.152;2023-01-31T00:20:27;99946.88;;;11.14;45.56
10176;BME280;18221;38.704;0.152;2023-01-31T00:22:57;99944.81;;;11.18;45.53
10176;BME280;18221;38.704;0.152;2023-01-31T00:25:25;99946.41;;;11.21;46.32
10176;BME280;18221;38.704;0.152;2023-01-31T00:27:54;99949.16;;;11.08;46.89
10176;BME280;18221;38.704;0.152;2023-01-31T00:30:22;99950.00;;;11.08;46.43
10176;BME280;18221;38.704;0.152;2023-01-31T00:32:51;99943.97;;;11.06;46.22
10176;BME280;18221;38.704;0.152;2023-01-31T00:35:20;99939.72;;;11.04;47.01
10176;BME280;18221;38.704;0.152;2023-01-31T00:37:50;99939.59;;;11.05;46.59
10176;BME280;18221;38.704;0.152;2023-01-31T00:40:19;99934.56;;;11.02;46.89
10176;BME280;18221;38.704;0.152;2023-01-31T00:42:48;99938.78;;;11.05;46.71
10176;BME280;18221;38.704;0.152;2023-01-31T00:45:16;99930.19;;;11.12;46.56
10176;BME280;18221;38.704;0.152;2023-01-31T00:47:44;99932.47;;;11.06;47.35
10176;BME280;18221;38.704;0.152;2023-01-31T00:50:15;99935.28;;;11.04;47.23
10176;BME280;18221;38.704;0.152;2023-01-31T00:52:43;99940.34;;;11.07;46.88
10176;BME280;18221;38.704;0.152;2023-01-31T00:55:13;99939.00;;;11.02;47.22
10176;BME280;18221;38.704;0.152;2023-01-31T00:57:42;99930.31;;;11.00;47.22
10176;BME280;18221;38.704;0.152;2023-01-31T01:00:12;99938.03;;;11.03;47.15
10176;BME280;18221;38.704;0.152;2023-01-31T01:02:40;99942.25;;;11.05;47.45
10176;BME280;18221;38.704;0.152;2023-01-31T01:05:09;99930.06;;;11.03;47.21
10176;BME280;18221;38.704;0.152;2023-01-31T01:07:38;99941.53;;;11.03;47.04
10176;BME280;18221;38.704;0.152;2023-01-31T01:10:08;99937.31;;;11.01;47.45
10176;BME280;18221;38.704;0.152;2023-01-31T01:12:38;99936.22;;;10.92;47.88
10176;BME280;18221;38.704;0.152;2023-01-31T01:15:07;99935.03;;;10.96;47.85
10176;BME280;18221;38.704;0.152;2023-01-31T01:17:36;99932.22;;;10.98;47.74
10176;BME280;18221;38.704;0.152;2023-01-31T01:20:05;99944.91;;;11.05;47.53
10176;BME280;18221;38.704;0.152;2023-01-31T01:22:34;99937.31;;;11.01;47.36
10176;BME280;18221;38.704;0.152;2023-01-31T01:25:05;99934.78;;;10.99;47.36
10176;BME280;18221;38.704;0.152;2023-01-31T01:27:34;99938.53;;;10.97;48.29
10176;BME280;18221;38.704;0.152;2023-01-31T01:30:05;99939.38;;;10.86;48.75
10176;BME280;18221;38.704;0.152;2023-01-31T01:32:34;99947.06;;;10.78;49.54
10176;BME280;18221;38.704;0.152;2023-01-31T01:35:03;99934.75;;;10.77;49.19
10176;BME280;18221;38.704;0.152;2023-01-31T01:37:32;99941.63;;;10.80;49.87
10176;BME280;18221;38.704;0.152;2023-01-31T01:40:01;99935.34;;;10.70;49.53
10176;BME280;18221;38.704;0.152;2023-01-31T01:42:34;99936.41;;;10.67;49.85
10176;BME280;18221;38.704;0.152;2023-01-31T01:45:12;99947.78;;;10.58;50.05
10176;BME280;18221;38.704;0.152;2023-01-31T01:47:46;99946.19;;;10.56;49.94
10176;BME280;18221;38.704;0.152;2023-01-31T01:50:23;99941.97;;;10.53;49.93
10176;BME280;18221;38.704;0.152;2023-01-31T01:52:56;99941.09;;;10.52;50.15
10176;BME280;18221;38.704;0.152;2023-01-31T01:55:35;99943.63;;;10.54;50.04
10176;BME280;18221;38.704;0.152;2023-01-31T01:58:10;99944.72;;;10.51;50.48
10176;BME280;18221;38.704;0.152;2023-01-31T02:00:40;99938.56;;;10.51;50.43
10176;BME280;18221;38.704;0.152;2023-01-31T02:03:11;99941.97;;;10.53;50.28
10176;BME280;18221;38.704;0.152;2023-01-31T02:05:44;99936.16;;;10.48;50.38
10176;BME280;18221;38.704;0.152;2023-01-31T02:08:17;99934.56;;;10.45;50.40
10176;BME280;18221;38.704;0.152;2023-01-31T02:10:50;99922.47;;;10.41;50.19
10176;BME280;18221;38.704;0.152;2023-01-31T02:13:21;99925.00;;;10.43;50.10
10176;BME280;18221;38.704;0.152;2023-01-31T02:15:52;99923.44;;;10.40;49.23
10176;BME280;18221;38.704;0.152;2023-01-31T02:18:23;99924.25;;;10.30;48.42
10176;BME280;18221;38.704;0.152;2023-01-31T02:21:44;99920.41;;;10.34;47.21
10176;BME280;18221;38.704;0.152;2023-01-31T02:28:26;99910.91;;;10.53;46.52
10176;BME280;18221;38.704;0.152;2023-01-31T02:34:44;99899.84;;;10.71;46.20
10176;BME280;18221;38.704;0.152;2023-01-31T02:37:31;99896.31;;;10.59;46.04
10176;BME280;18221;38.704;0.152;2023-01-31T02:40:15;99892.81;;;10.59;45.97
10176;BME280;18221;38.704;0.152;2023-01-31T02:42:53;99888.59;;;10.56;45.92
10176;BME280;18221;38.704;0.152;2023-01-31T02:45:36;99872.78;;;10.54;45.96
10176;BME280;18221;38.704;0.152;2023-01-31T02:48:16;99879.91;;;10.54;45.43
10176;BME280;18221;38.704;0.152;2023-01-31T02:50:59;99873.28;;;10.60;45.62
10176;BME280;18221;38.704;0.152;2023-01-31T02:53:34;99866.75;;;10.52;45.73
10176;BME280;18221;38.704;0.152;2023-01-31T02:56:09;99856.47;;;10.59;45.11
10176;BME280;18221;38.704;0.152;2023-01-31T02:58:50;99865.44;;;10.58;45.40
10176;BME280;18221;38.704;0.152;2023-01-31T03:01:26;99852.97;;;10.47;45.65
10176;BME280;18221;38.704;0.152;2023-01-31T03:03:58;99855.41;;;10.50;45.88
10176;BME280;18221;38.704;0.152;2023-01-31T03:06:59;99847.69;;;10.47;46.19
10176;BME280;18221;38.704;0.152;2023-01-31T03:09:41;99854.31;;;10.42;46.17
10176;BME280;18221;38.704;0.152;2023-01-31T03:12:34;99841.72;;;10.33;45.84
10176;BME280;18221;38.704;0.152;2023-01-31T03:15:37;99840.03;;;10.32;45.87
10176;BME280;18221;38.704;0.152;2023-01-31T03:18:43;99839.28;;;10.30;45.82
10176;BME280;18221;38.704;0.152;2023-01-31T03:21:19;99827.72;;;10.31;44.86
10176;BME280;18221;38.704;0.152;2023-01-31T03:23:53;99827.63;;;10.32;43.93
10176;BME280;18221;38.704;0.152;2023-01-31T03:26:24;99828.22;;;10.47;43.45
10176;BME280;18221;38.704;0.152;2023-01-31T03:28:56;99828.97;;;10.49;43.82
10176;BME280;18221;38.704;0.152;2023-01-31T03:31:32;99826.53;;;10.46;44.20
10176;BME280;18221;38.704;0.152;2023-01-31T03:34:06;99823.75;;;10.36;44.58
10176;BME280;18221;38.704;0.152;2023-01-31T03:36:45;99815.66;;;10.38;44.89
10176;BME280;18221;38.704;0.152;2023-01-31T03:39:30;99818.31;;;10.38;45.37
10176;BME280;18221;38.704;0.152;2023-01-31T03:42:07;99822.06;;;10.35;46.06
10176;BME280;18221;38.704;0.152;2023-01-31T03:44:44;99823.75;;;10.36;46.05
10176;BME280;18221;38.704;0.152;2023-01-31T03:47:23;99825.69;;;10.34;46.80
10176;BME280;18221;38.704;0.152;2023-01-31T03:49:56;99818.91;;;10.30;47.11
10176;BME280;18221;38.704;0.152;2023-01-31T03:52:32;99823.75;;;10.36;47.84
10176;BME280;18221;38.704;0.152;2023-01-31T03:55:13;99814.44;;;10.31;47.49
10176;BME280;18221;38.704;0.152;2023-01-31T03:57:46;99813.38;;;10.33;47.87
10176;BME280;18221;38.704;0.152;2023-01-31T04:00:20;99813.13;;;10.36;48.74
10176;BME280;18221;38.704;0.152;2023-01-31T04:02:55;99822.53;;;10.29;49.07
10176;BME280;18221;38.704;0.152;2023-01-31T04:05:25;99821.22;;;10.24;49.58
10176;BME280;18221;38.704;0.152;2023-01-31T04:07:58;99819.28;;;10.26;48.87
10176;BME280;18221;38.704;0.152;2023-01-31T04:10:28;99818.78;;;10.21;48.94
10176;BME280;18221;38.704;0.152;2023-01-31T04:12:57;99817.06;;;10.20;49.69
10176;BME280;18221;38.704;0.152;2023-01-31T04:15:25;99809.88;;;10.22;49.77
10176;BME280;18221;38.704;0.152;2023-01-31T04:17:53;99813.47;;;10.21;49.31
10176;BME280;18221;38.704;0.152;2023-01-31T04:20:22;99809.59;;;10.25;48.87
10176;BME280;18221;38.704;0.152;2023-01-31T04:22:50;99812.53;;;10.22;49.44
10176;BME280;18221;38.704;0.152;2023-01-31T04:25:18;99804.03;;;10.17;49.53
10176;BME280;18221;38.704;0.152;2023-01-31T04:27:48;99801.66;;;10.14;49.41
10176;BME280;18221;38.704;0.152;2023-01-31T04:30:17;99801.13;;;10.09;49.71
10176;BME280;18221;38.704;0.152;2023-01-31T04:32:46;99798.56;;;10.07;48.71
10176;BME280;18221;38.704;0.152;2023-01-31T04:35:14;99798.47;;;10.09;48.57
10176;BME280;18221;38.704;0.152;2023-01-31T04:37:42;99805.25;;;10.13;48.09
10176;BME280;18221;38.704;0.152;2023-01-31T04:40:12;99799.19;;;10.11;47.67
10176;BME280;18221;38.704;0.152;2023-01-31T04:42:40;99800.13;;;10.10;47.79
10176;BME280;18221;38.704;0.152;2023-01-31T04:45:11;99804.00;;;10.06;48.09
10176;BME280;18221;38.704;0.152;2023-01-31T04:47:40;99801.13;;;10.09;47.42
10176;BME280;18221;38.704;0.152;2023-01-31T04:50:09;99795.34;;;10.15;47.37
10176;BME280;18221;38.704;0.152;2023-01-31T04:52:37;99795.50;;;10.13;47.21
10176;BME280;18221;38.704;0.152;2023-01-31T04:55:07;99805.88;;;10.16;46.64
10176;BME280;18221;38.704;0.152;2023-01-31T04:57:35;99796.22;;;10.15;46.35
10176;BME280;18221;38.704;0.152;2023-01-31T05:00:05;99798.47;;;10.09;46.68
10176;BME280;18221;38.704;0.152;2023-01-31T05:02:35;99794.56;;;10.02;46.29
10176;BME280;18221;38.704;0.152;2023-01-31T05:05:05;99798.22;;;10.01;46.45
10176;BME280;18221;38.704;0.152;2023-01-31T05:07:33;99795.78;;;9.98;45.76
10176;BME280;18221;38.704;0.152;2023-01-31T05:10:05;99805.78;;;9.94;44.85
10176;BME280;18221;38.704;0.152;2023-01-31T05:12:34;99807.69;;;9.92;44.88
10176;BME280;18221;38.704;0.152;2023-01-31T05:15:03;99813.00;;;9.92;43.88
10176;BME280;18221;38.704;0.152;2023-01-31T05:17:35;99812.16;;;9.91;43.86
10176;BME280;18221;38.704;0.152;2023-01-31T05:20:04;99806.84;;;9.91;44.78
10176;BME280;18221;38.704;0.152;2023-01-31T05:22:33;99805.53;;;9.97;45.16
10176;BME280;18221;38.704;0.152;2023-01-31T05:25:02;99812.66;;;9.97;44.20
10176;BME280;18221;38.704;0.152;2023-01-31T05:27:31;99809.22;;;9.83;44.30
10176;BME280;18221;38.704;0.152;2023-01-31T05:29:59;99812.88;;;9.82;43.62
10176;BME280;18221;38.704;0.152;2023-01-31T05:32:28;99813.81;;;9.81;43.65
10176;BME280;18221;38.704;0.152;2023-01-31T05:34:58;99809.22;;;9.83;43.96
10176;BME280;18221;38.704;0.152;2023-01-31T05:37:26;99813.81;;;9.81;43.62
10176;BME280;18221;38.704;0.152;2023-01-31T05:39:54;99820.56;;;9.85;43.84
10176;BME280;18221;38.704;0.152;2023-01-31T05:42:23;99810.94;;;9.84;42.72
10176;BME280;18221;38.704;0.152;2023-01-31T05:44:51;99810.50;;;9.90;42.46
10176;BME280;18221;38.704;0.152;2023-01-31T05:47:20;99809.63;;;9.90;42.04
10176;BME280;18221;38.704;0.152;2023-01-31T05:49:49;99821.59;;;9.96;42.03
10176;BME280;18221;38.704;0.152;2023-01-31T05:52:19;99823.41;;;9.95;42.56
10176;BME280;18221;38.704;0.152;2023-01-31T05:54:47;99830.63;;;9.93;42.72
10176;BME280;18221;38.704;0.152;2023-01-31T05:57:16;99826.41;;;9.90;41.35
10176;BME280;18221;38.704;0.152;2023-01-31T05:59:45;99824.97;;;9.98;40.75
10176;BME280;18221;38.704;0.152;2023-01-31T06:02:13;99822.91;;;10.01;40.69
10176;BME280;18221;38.704;0.152;2023-01-31T06:04:42;99823.53;;;10.05;40.70
10176;BME280;18221;38.704;0.152;2023-01-31T06:07:10;99825.69;;;10.00;40.09
10176;BME280;18221;38.704;0.152;2023-01-31T06:09:40;99839.91;;;9.99;39.61
10176;BME280;18221;38.704;0.152;2023-01-31T06:12:12;99838.38;;;10.07;39.20
10176;BME280;18221;38.704;0.152;2023-01-31T06:14:42;99838.38;;;10.07;39.76
10176;BME280;18221;38.704;0.152;2023-01-31T06:17:11;99835.00;;;10.05;39.22
10176;BME280;18221;38.704;0.152;2023-01-31T06:19:40;99834.78;;;10.08;38.22
10176;BME280;18221;38.704;0.152;2023-01-31T06:22:09;99833.06;;;10.07;38.77
10176;BME280;18221;38.704;0.152;2023-01-31T06:24:39;99830.16;;;9.99;38.10
10176;BME280;18221;38.704;0.152;2023-01-31T06:27:08;99835.69;;;9.96;38.26
10176;BME280;18221;38.704;0.152;2023-01-31T06:29:37;99836.53;;;9.97;38.14
10176;BME280;18221;38.704;0.152;2023-01-31T06:32:05;99842.81;;;9.96;38.88
10176;BME280;18221;38.704;0.152;2023-01-31T06:34:34;99838.47;;;9.94;38.94
10176;BME280;18221;38.704;0.152;2023-01-31T06:37:02;99838.81;;;10.01;39.00
10176;BME280;18221;38.704;0.152;2023-01-31T06:39:31;99835.34;;;10.01;39.62
10176;BME280;18221;38.704;0.152;2023-01-31T06:42:01;99850.78;;;10.07;39.63
10176;BME280;18221;38.704;0.152;2023-01-31T06:44:29;99847.31;;;10.06;38.88
10176;BME280;18221;38.704;0.152;2023-01-31T06:46:59;99858.03;;;10.05;38.69
10176;BME280;18221;38.704;0.152;2023-01-31T06:49:27;99851.53;;;10.09;39.04
10176;BME280;18221;38.704;0.152;2023-01-31T06:51:56;99853.22;;;10.10;38.42
10176;BME280;18221;38.704;0.152;2023-01-31T06:54:24;99851.09;;;10.15;37.94
10176;BME280;18221;38.704;0.152;2023-01-31T06:56:53;99850.19;;;10.27;37.75
10176;BME280;18221;38.704;0.152;2023-01-31T06:59:22;99850.53;;;10.33;38.03
10176;BME280;18221;38.704;0.152;2023-01-31T07:01:51;99846.69;;;10.48;37.56
10176;BME280;18221;38.704;0.152;2023-01-31T07:04:21;99859.63;;;10.64;36.78
10176;BME280;18221;38.704;0.152;2023-01-31T07:06:50;99867.63;;;10.86;36.37
10176;BME280;18221;38.704;0.152;2023-01-31T07:09:18;99856.84;;;10.88;36.63
10176;BME280;18221;38.704;0.152;2023-01-31T07:11:47;99857.38;;;10.82;36.06
10176;BME280;18221;38.704;0.152;2023-01-31T07:14:16;99855.03;;;10.77;36.08
10176;BME280;18221;38.704;0.152;2023-01-31T07:16:46;99864.34;;;10.72;36.96
10176;BME280;18221;38.704;0.152;2023-01-31T07:19:14;99862.06;;;10.78;36.56
10176;BME280;18221;38.704;0.152;2023-01-31T07:21:43;99863.84;;;10.67;36.63
10176;BME280;18221;38.704;0.152;2023-01-31T07:24:13;99859.63;;;10.64;37.10
10176;BME280;18221;38.704;0.152;2023-01-31T07:26:43;99854.06;;;10.56;37.53
10176;BME280;18221;38.704;0.152;2023-01-31T07:29:12;99861.31;;;10.54;37.83
10176;BME280;18221;38.704;0.152;2023-01-31T07:31:40;99857.47;;;10.58;37.33
10176;BME280;18221;38.704;0.152;2023-01-31T07:34:11;99867.72;;;10.63;37.47
10176;BME280;18221;38.704;0.152;2023-01-31T07:36:39;99868.47;;;10.76;38.42
10176;BME280;18221;38.704;0.152;2023-01-31T07:39:08;99872.22;;;10.84;38.94
10176;BME280;18221;38.704;0.152;2023-01-31T07:41:37;99873.91;;;10.96;37.33
10176;BME280;18221;38.704;0.152;2023-01-31T07:44:05;99867.13;;;11.14;36.25
10176;BME280;18221;38.704;0.152;2023-01-31T07:46:34;99875.94;;;11.15;36.55
10176;BME280;18221;38.704;0.152;2023-01-31T07:49:03;99879.19;;;11.30;35.43
10176;BME280;18221;38.704;0.152;2023-01-31T07:51:34;99880.63;;;11.34;36.43
10176;BME280;18221;38.704;0.152;2023-01-31T07:54:04;99891.38;;;11.43;36.16
10176;BME280;18221;38.704;0.152;2023-01-31T07:56:33;99890.28;;;11.46;35.51
10176;BME280;18221;38.704;0.152;2023-01-31T07:59:02;99895.94;;;11.52;35.93
10176;BME280;18221;38.704;0.152;2023-01-31T08:01:32;99902.63;;;11.47;35.99
10176;BME280;18221;38.704;0.152;2023-01-31T08:04:18;99900.06;;;11.45;36.45
10176;BME280;18221;38.704;0.152;2023-01-31T08:06:51;99901.25;;;11.52;36.38
10176;BME280;18221;38.704;0.152;2023-01-31T08:09:21;99917.81;;;11.67;36.66
10176;BME280;18221;38.704;0.152;2023-01-31T08:11:50;99920.25;;;11.70;37.43
10176;BME280;18221;38.704;0.152;2023-01-31T08:14:19;99924.22;;;11.75;37.08
10176;BME280;18221;38.704;0.152;2023-01-31T08:16:51;99912.00;;;11.62;37.67
10176;BME280;18221;38.704;0.152;2023-01-31T08:19:19;99922.06;;;11.69;37.03
10176;BME280;18221;38.704;0.152;2023-01-31T08:21:50;99918.59;;;11.90;37.96
10176;BME280;18221;38.704;0.152;2023-01-31T08:24:19;99911.69;;;11.98;37.84
10176;BME280;18221;38.704;0.152;2023-01-31T08:26:47;99918.78;;;12.09;38.04
10176;BME280;18221;38.704;0.152;2023-01-31T08:29:16;99920.84;;;12.05;38.40
10176;BME280;18221;38.704;0.152;2023-01-31T08:31:45;99936.78;;;12.16;37.82
10176;BME280;18221;38.704;0.152;2023-01-31T08:34:14;99942.31;;;12.24;35.96
10176;BME280;18221;38.704;0.152;2023-01-31T08:36:43;99942.88;;;12.28;37.40
10176;BME280;18221;38.704;0.152;2023-01-31T08:39:13;99942.78;;;12.29;37.20
10176;BME280;18221;38.704;0.152;2023-01-31T08:41:42;99954.59;;;12.36;36.68
10176;BME280;18221;38.704;0.152;2023-01-31T08:44:12;99946.88;;;12.33;36.83
10176;BME280;18221;38.704;0.152;2023-01-31T08:46:41;99950.94;;;12.49;36.31
10176;BME280;18221;38.704;0.152;2023-01-31T08:49:11;99951.75;;;12.49;36.59
10176;BME280;18221;38.704;0.152;2023-01-31T08:51:40;99952.50;;;12.51;36.37
10176;BME280;18221;38.704;0.152;2023-01-31T08:54:09;99953.00;;;12.66;36.09
10176;BME280;18221;38.704;0.152;2023-01-31T08:56:40;99961.06;;;12.55;36.37
10176;BME280;18221;38.704;0.152;2023-01-31T08:59:10;99962.97;;;12.64;36.59
10176;BME280;18221;38.704;0.152;2023-01-31T09:01:39;99965.88;;;12.61;36.68
10176;BME280;18221;38.704;0.152;2023-01-31T09:04:09;99972.81;;;12.73;36.88
10176;BME280;18221;38.704;0.152;2023-01-31T09:06:37;99978.94;;;12.84;36.64
10176;BME280;18221;38.704;0.152;2023-01-31T09:09:06;99980.91;;;12.82;36.48
10176;BME280;18221;38.704;0.152;2023-01-31T09:11:34;99987.91;;;12.83;37.00
10176;BME280;18221;38.704;0.152;2023-01-31T09:14:04;99988.25;;;12.90;36.78
10176;BME280;18221;38.704;0.152;2023-01-31T09:16:33;99989.16;;;13.00;36.16
10176;BME280;18221;38.704;0.152;2023-01-31T09:19:01;99990.25;;;12.97;36.69
10176;BME280;18221;38.704;0.152;2023-01-31T09:21:30;99986.72;;;12.97;36.79
10176;BME280;18221;38.704;0.152;2023-01-31T09:23:59;99987.41;;;13.10;37.14
10176;BME280;18221;38.704;0.152;2023-01-31T09:26:29;99991.88;;;13.10;36.46
10176;BME280;18221;38.704;0.152;2023-01-31T09:28:58;99992.94;;;13.18;36.95
10176;BME280;18221;38.704;0.152;2023-01-31T09:31:28;99994.22;;;13.24;37.14
10176;BME280;18221;38.704;0.152;2023-01-31T09:33:57;100001.97;;;13.27;38.11
10176;BME280;18221;38.704;0.152;2023-01-31T09:36:26;100004.03;;;13.23;38.47
10176;BME280;18221;38.704;0.152;2023-01-31T09:38:55;100006.72;;;13.23;38.68
10176;BME280;18221;38.704;0.152;2023-01-31T09:41:31;100010.41;;;13.32;38.54
10176;BME280;18221;38.704;0.152;2023-01-31T09:44:04;100009.16;;;13.36;38.06
10176;BME280;18221;38.704;0.152;2023-01-31T09:46:41;100007.44;;;13.35;36.27
10176;BME280;18221;38.704;0.152;2023-01-31T09:49:17;100011.19;;;13.23;34.99
10176;BME280;18221;38.704;0.152;2023-01-31T09:51:54;100009.44;;;13.12;32.56
10176;BME280;18221;38.704;0.152;2023-01-31T09:54:28;100009.53;;;13.22;30.41
10176;BME280;18221;38.704;0.152;2023-01-31T09:57:16;100014.97;;;13.20;29.33
10176;BME280;18221;38.704;0.152;2023-01-31T09:59:56;100008.56;;;13.32;29.58
10176;BME280;18221;38.704;0.152;2023-01-31T10:03:17;100012.22;;;13.31;28.74
10176;BME280;18221;38.704;0.152;2023-01-31T10:05:56;100017.34;;;13.44;28.27
10176;BME280;18221;38.704;0.152;2023-01-31T10:08:42;100011.09;;;13.64;28.32
10176;BME280;18221;38.704;0.152;2023-01-31T10:11:19;100009.69;;;13.60;28.37
10176;BME280;18221;38.704;0.152;2023-01-31T10:13:57;100005.50;;;13.67;27.57
10176;BME280;18221;38.704;0.152;2023-01-31T10:16:32;100016.63;;;13.42;27.50
10176;BME280;18221;38.704;0.152;2023-01-31T10:19:08;100003.75;;;13.47;26.46
10176;BME280;18221;38.704;0.152;2023-01-31T10:21:42;99998.66;;;13.44;27.43
10176;BME280;18221;38.704;0.152;2023-01-31T10:24:19;100005.63;;;13.35;28.36
10176;BME280;18221;38.704;0.152;2023-01-31T10:26:52;100002.53;;;13.30;28.63
10176;BME280;18221;38.704;0.152;2023-01-31T10:29:29;100003.63;;;13.28;28.33
10176;BME280;18221;38.704;0.152;2023-01-31T10:32:04;100014.97;;;13.20;28.24
10176;BME280;18221;38.704;0.152;2023-01-31T10:34:42;100011.06;;;13.24;28.03
10176;BME280;18221;38.704;0.152;2023-01-31T10:37:28;100003.69;;;13.37;28.15
10176;BME280;18221;38.704;0.152;2023-01-31T10:40:03;100007.06;;;13.39;28.58
10176;BME280;18221;38.704;0.152;2023-01-31T10:42:35;100014.63;;;13.34;28.27
10176;BME280;18221;38.704;0.152;2023-01-31T10:45:15;100012.41;;;13.39;28.50
10176;BME280;18221;38.704;0.152;2023-01-31T10:47:50;100003.56;;;13.39;29.73
10176;BME280;18221;38.704;0.152;2023-01-31T10:50:28;100005.13;;;13.41;29.78
10176;BME280;18221;38.704;0.152;2023-01-31T10:53:36;100009.28;;;13.65;30.13
10176;BME280;18221;38.704;0.152;2023-01-31T10:56:13;100005.88;;;13.53;29.24
10176;BME280;18221;38.704;0.152;2023-01-31T10:58:46;100012.56;;;13.78;28.84
10176;BME280;18221;38.704;0.152;2023-01-31T11:01:14;100004.72;;;13.86;30.49
10176;BME280;18221;38.704;0.152;2023-01-31T11:03:50;99998.66;;;13.84;29.73
10176;BME280;18221;38.704;0.152;2023-01-31T11:06:21;99998.19;;;13.69;30.14
10176;BME280;18221;38.704;0.152;2023-01-31T11:08:54;99995.69;;;13.77;29.53
10176;BME280;18221;38.704;0.152;2023-01-31T11:11:26;99997.25;;;13.80;30.69
10176;BME280;18221;38.704;0.152;2023-01-31T11:13:57;99991.91;;;13.80;31.45
10176;BME280;18221;38.704;0.152;2023-01-31T11:16:30;99988.53;;;13.78;31.79
10176;BME280;18221;38.704;0.152;2023-01-31T11:19:02;99981.38;;;13.88;30.65
10176;BME280;18221;38.704;0.152;2023-01-31T11:21:35;99986.03;;;13.95;30.32
10176;BME280;18221;38.704;0.152;2023-01-31T11:24:07;99980.44;;;13.98;31.21
10176;BME280;18221;38.704;0.152;2023-01-31T11:26:51;99972.56;;;13.97;30.77
10176;BME280;18221;38.704;0.152;2023-01-31T11:29:26;99967.78;;;14.00;29.96
10176;BME280;18221;38.704;0.152;2023-01-31T11:31:58;99969.91;;;14.06;30.15
10176;BME280;18221;38.704;0.152;2023-01-31T11:34:29;99962.59;;;14.08;29.74
10176;BME280;18221;38.704;0.152;2023-01-31T11:37:13;99956.53;;;13.97;30.58
10176;BME280;18221;38.704;0.152;2023-01-31T11:39:42;99962.59;;;14.08;30.22
10176;BME280;18221;38.704;0.152;2023-01-31T11:42:21;99954.31;;;14.02;28.82
10176;BME280;18221;38.704;0.152;2023-01-31T11:44:58;99951.06;;;14.08;29.75
10176;BME280;18221;38.704;0.152;2023-01-31T11:47:42;99944.88;;;14.17;29.87
10176;BME280;18221;38.704;0.152;2023-01-31T11:50:22;99929.13;;;14.04;29.37
10176;BME280;18221;38.704;0.152;2023-01-31T11:52:58;99931.13;;;14.12;30.06
10176;BME280;18221;38.704;0.152;2023-01-31T11:55:34;99936.19;;;14.34;30.00
10176;BME280;18221;38.704;0.152;2023-01-31T11:58:14;99932.69;;;14.34;30.08
10176;BME280;18221;38.704;0.152;2023-01-31T12:00:53;99929.75;;;14.46;30.65
10176;BME280;18221;38.704;0.152;2023-01-31T12:03:25;99934.38;;;14.35;30.66
10176;BME280;18221;38.704;0.152;2023-01-31T12:06:02;99922.13;;;14.32;30.86
10176;BME280;18221;38.704;0.152;2023-01-31T12:08:35;99919.31;;;14.43;31.05
10176;BME280;18221;38.704;0.152;2023-01-31T12:11:25;99925.34;;;14.64;30.00
10176;BME280;18221;38.704;0.152;2023-01-31T12:14:05;99920.84;;;14.65;29.46
10176;BME280;18221;38.704;0.152;2023-01-31T12:16:37;99920.72;;;14.57;29.88
10176;BME280;18221;38.704;0.152;2023-01-31T12:19:23;99914.06;;;14.70;29.95
10176;BME280;18221;38.704;0.152;2023-01-31T12:22:04;99920.25;;;14.80;30.11
10176;BME280;18221;38.704;0.152;2023-01-31T12:24:50;99911.91;;;14.93;29.38
10176;BME280;18221;38.704;0.152;2023-01-31T12:27:44;99908.56;;;14.81;29.57
10176;BME280;18221;38.704;0.152;2023-01-31T12:30:33;99901.22;;;14.93;29.75
10176;BME280;18221;38.704;0.152;2023-01-31T12:33:32;99903.63;;;14.87;30.09
10176;BME280;18221;38.704;0.152;2023-01-31T12:36:27;99900.84;;;15.15;30.81
10176;BME280;18221;38.704;0.152;2023-01-31T12:39:15;99895.09;;;15.10;30.45
10176;BME280;18221;38.704;0.152;2023-01-31T12:42:03;99896.38;;;15.06;30.68
10176;BME280;18221;38.704;0.152;2023-01-31T12:44:45;99891.66;;;15.18;30.63
10176;BME280;18221;38.704;0.152;2023-01-31T12:47:45;99895.75;;;15.22;31.14
10176;BME280;18221;38.704;0.152;2023-01-31T12:50:31;99900.00;;;15.15;30.60
10176;BME280;18221;38.704;0.152;2023-01-31T12:53:26;99893.84;;;15.05;30.89
10176;BME280;18221;38.704;0.152;2023-01-31T12:59:42;99891.66;;;15.27;31.67
10176;BME280;18221;38.704;0.152;2023-01-31T13:02:39;99893.13;;;15.39;31.04
10176;BME280;18221;38.704;0.152;2023-01-31T13:05:23;99891.44;;;15.38;31.57
10176;BME280;18221;38.704;0.152;2023-01-31T13:07:56;99891.50;;;15.29;30.79
10176;BME280;18221;38.704;0.152;2023-01-31T13:10:36;99890.41;;;15.49;31.23
10176;BME280;18221;38.704;0.152;2023-01-31T13:13:16;99887.44;;;15.52;31.72
10176;BME280;18221;38.704;0.152;2023-01-31T13:15:55;99890.38;;;15.59;31.89
10176;BME280;18221;38.704;0.152;2023-01-31T13:18:26;99879.81;;;15.30;31.65
10176;BME280;18221;38.704;0.152;2023-01-31T13:21:00;99883.63;;;15.55;32.01
10176;BME280;18221;38.704;0.152;2023-01-31T13:23:37;99880.19;;;15.35;32.57
10176;BME280;18221;38.704;0.152;2023-01-31T13:26:13;99874.59;;;15.28;32.30
10176;BME280;18221;38.704;0.152;2023-01-31T13:28:49;99870.19;;;15.37;32.49
10176;BME280;18221;38.704;0.152;2023-01-31T13:31:26;99867.72;;;15.43;31.77
10176;BME280;18221;38.704;0.152;2023-01-31T13:34:17;99867.97;;;15.77;31.60
10176;BME280;18221;38.704;0.152;2023-01-31T13:36:53;99866.69;;;15.81;30.92
10176;BME280;18221;38.704;0.152;2023-01-31T13:39:29;99865.84;;;15.98;31.39
10176;BME280;18221;38.704;0.152;2023-01-31T13:42:00;99861.78;;;16.12;31.43
10176;BME280;18221;38.704;0.152;2023-01-31T13:44:28;99858.44;;;15.92;31.53
10176;BME280;18221;38.704;0.152;2023-01-31T13:47:03;99858.44;;;15.92;31.65